createdAt,value
2023-01-29T00:11:01.124Z,25.00
2023-01-29T03:21:55.241Z,25.00
2023-01-29T03:22:55.500Z,25.00
2023-01-29T03:23:54.622Z,25.00
2023-01-29T03:24:54.549Z,25.00
2023-01-29T03:25:54.530Z,25.00
2023-01-29T03:26:54.538Z,25.00
2023-01-29T03:27:54.764Z,0.00
2023-01-29T03:28:54.544Z,0.00
2023-01-29T03:29:54.517Z,0.00
2023-01-29T03:30:55.305Z,0.00
2023-01-29T03:31:54.545Z,0.00
2023-01-29T03:32:54.476Z,0.00
2023-01-29T03:33:54.455Z,0.00
2023-01-29T03:34:54.461Z,0.00
2023-01-29T03:35:54.471Z,0.00
2023-01-29T03:36:54.515Z,0.00
2023-01-29T03:37:54.488Z,0.00
2023-01-29T03:38:54.531Z,0.00
2023-01-29T03:39:54.487Z,0.00
2023-01-29T03:40:54.506Z,0.00
2023-01-29T03:41:54.397Z,0.00
2023-01-29T03:42:54.537Z,0.00
2023-01-29T03:43:54.447Z,24.66
2023-01-29T03:44:54.527Z,26.42
2023-01-29T03:45:54.688Z,18.97
2023-01-29T03:46:54.582Z,24.74
2023-01-29T03:47:54.695Z,35.18
2023-01-29T03:48:54.733Z,39.61
2023-01-29T03:51:14.946Z,25.00
2023-01-29T03:52:14.986Z,25.00
2023-01-29T03:53:15.973Z,25.00
2023-01-29T03:54:14.720Z,25.00
2023-01-29T03:55:15.035Z,25.00
2023-01-29T03:56:14.867Z,25.01
2023-01-29T03:57:15.141Z,26.46
2023-01-29T03:58:15.989Z,27.98
2023-01-29T03:59:14.991Z,25.22
2023-01-29T04:00:15.443Z,27.62
2023-01-29T04:01:15.410Z,25.00
2023-01-29T04:02:15.493Z,28.18
2023-01-29T04:03:16.346Z,29.47
2023-01-29T04:04:15.585Z,42.30
2023-01-29T04:06:52.081Z,25.00
2023-01-29T04:09:12.579Z,25.00
2023-01-29T04:10:11.901Z,25.00
2023-01-29T04:12:32.222Z,25.00
2023-01-29T04:14:32.151Z,25.00
2023-01-29T04:15:32.357Z,25.00
2023-01-29T04:16:32.360Z,25.00
2023-01-29T04:17:32.231Z,25.00
2023-01-29T04:18:32.642Z,25.39
2023-01-29T04:19:32.249Z,26.68
2023-01-29T04:20:32.205Z,17.67
2023-01-29T04:21:32.615Z,20.46
2023-01-29T04:22:32.332Z,25.00
2023-01-29T04:23:32.511Z,13.00
2023-01-29T04:24:32.229Z,31.20
2023-01-29T04:26:32.364Z,54.29
2023-01-29T04:27:32.593Z,61.24
2023-01-29T04:29:32.287Z,12.69
2023-01-29T04:30:32.346Z,39.88
2023-01-29T04:31:32.417Z,43.43
2023-01-29T04:32:32.590Z,77.70
2023-01-29T04:33:32.320Z,25.00
2023-01-29T04:35:33.046Z,52.05
2023-01-29T04:36:32.759Z,36.35
2023-01-29T04:38:32.551Z,57.79
2023-01-29T04:39:33.307Z,82.65
2023-01-29T04:40:32.766Z,90.60
2023-01-29T04:41:32.902Z,88.42
2023-01-29T04:43:53.420Z,25.00
2023-01-29T04:44:53.268Z,25.00
2023-01-29T04:45:52.874Z,25.00
2023-01-29T04:46:52.824Z,25.00
2023-01-29T04:47:52.889Z,25.00
2023-01-29T04:48:52.863Z,66.01
2023-01-29T04:49:52.878Z,28.38
2023-01-29T04:50:52.804Z,25.76
2023-01-29T04:51:52.819Z,33.31
2023-01-29T04:52:52.777Z,58.06
2023-01-29T04:53:52.801Z,77.86
2023-01-29T04:54:52.776Z,57.29
2023-01-29T04:55:52.794Z,41.48
2023-01-29T04:56:52.793Z,90.14
2023-01-29T04:57:52.796Z,51.22
2023-01-29T04:58:52.751Z,88.36
2023-01-29T04:59:52.773Z,101.43
2023-01-29T05:00:52.721Z,108.12
2023-01-29T05:01:52.778Z,91.68
2023-01-29T05:02:52.778Z,99.59
2023-01-29T05:03:52.724Z,138.20
2023-01-29T05:04:52.706Z,126.46
2023-01-29T05:05:52.780Z,147.56
2023-01-29T06:40:16.963Z,25.00
2023-01-29T06:41:16.458Z,25.00
2023-01-29T07:24:17.549Z,25.00
2023-01-29T07:25:17.381Z,25.00
2023-01-29T07:32:19.556Z,25.00
2023-01-29T07:33:18.066Z,25.00
2023-01-29T07:34:17.867Z,25.00
2023-01-29T07:36:18.113Z,25.00
2023-01-29T07:37:17.722Z,34.95
2023-01-29T07:38:17.757Z,52.87
2023-01-29T07:39:18.265Z,47.73
2023-01-29T07:40:18.135Z,31.27
2023-01-29T07:41:17.910Z,25.00
2023-01-29T07:42:18.071Z,45.90
2023-01-29T07:43:19.536Z,26.31
2023-01-29T07:44:17.742Z,25.71
2023-01-29T07:45:17.760Z,40.68
2023-01-29T07:46:17.680Z,40.30
2023-01-29T07:47:17.876Z,58.27
2023-01-29T07:48:17.939Z,58.30
2023-01-29T07:50:18.013Z,73.31
2023-01-29T07:51:17.842Z,81.58
2023-01-29T07:52:17.888Z,76.92
2023-01-29T07:53:17.958Z,85.00
2023-01-29T07:54:18.035Z,66.98
2023-01-29T07:55:18.161Z,32.04
2023-01-29T07:56:18.069Z,45.20
2023-01-29T07:57:18.486Z,26.88
2023-01-29T07:58:18.313Z,34.08
2023-01-29T07:59:18.275Z,39.06
2023-01-29T08:00:18.656Z,40.84
2023-01-29T08:02:18.284Z,62.75
2023-01-29T08:03:18.446Z,68.91
2023-01-29T08:08:58.503Z,25.00
2023-01-29T08:25:58.322Z,37.29
2023-01-29T08:43:00.368Z,207.22
2023-01-29T08:43:58.105Z,208.95
2023-01-29T08:44:58.052Z,225.90
2023-01-29T08:47:18.624Z,25.00
2023-01-29T08:48:18.533Z,25.00
2023-01-29T08:49:18.002Z,25.00
2023-01-29T08:50:18.070Z,25.00
2023-01-29T08:51:17.797Z,25.00
2023-01-29T08:52:17.705Z,26.51
2023-01-29T08:53:17.759Z,32.93
2023-01-29T08:54:17.711Z,70.68
2023-01-29T08:55:18.136Z,84.96
2023-01-29T08:56:17.854Z,92.27
2023-01-29T08:57:17.670Z,98.93
2023-01-29T08:58:17.840Z,105.15
2023-01-29T08:59:17.641Z,110.94
2023-01-29T09:00:17.917Z,136.88
2023-01-29T09:28:00.679Z,39.22
2023-01-29T09:29:00.269Z,26.27
2023-01-29T09:30:00.589Z,33.36
2023-01-29T09:31:00.360Z,31.99
2023-01-29T09:33:19.866Z,25.00
2023-01-29T09:34:19.853Z,25.00
2023-01-29T09:35:19.808Z,25.00
2023-01-29T09:36:19.884Z,25.00
2023-01-29T09:37:21.060Z,25.00
2023-01-29T09:38:20.033Z,26.64
2023-01-29T09:39:19.779Z,25.00
2023-01-29T09:40:19.691Z,50.27
2023-01-29T09:41:19.705Z,22.01
2023-01-29T09:42:19.734Z,15.91
2023-01-29T09:43:19.691Z,60.35
2023-01-29T09:44:19.715Z,41.07
2023-01-29T09:45:19.766Z,67.84
2023-01-29T09:46:19.719Z,44.02
2023-01-29T09:47:19.683Z,34.57
2023-01-29T09:48:19.658Z,38.72
2023-01-29T09:49:19.667Z,61.86
2023-01-29T09:50:20.403Z,78.88
2023-01-29T09:51:19.663Z,61.76
2023-01-29T09:52:19.613Z,79.21
2023-01-29T09:53:19.679Z,157.08
2023-01-29T09:54:19.667Z,156.48
2023-01-29T09:55:19.600Z,208.02
2023-01-29T09:56:19.589Z,222.40
2023-01-29T09:57:19.681Z,257.26
2023-01-29T09:58:19.611Z,250.93
2023-01-29T09:59:19.609Z,265.01
2023-01-29T10:00:19.621Z,243.89
2023-01-29T10:01:19.807Z,243.85
2023-01-29T10:02:19.779Z,246.16
2023-01-29T10:03:19.682Z,251.74
2023-01-29T10:06:20.038Z,25.00
2023-01-29T10:07:20.117Z,25.00
2023-01-29T10:08:20.070Z,25.00
2023-01-29T10:09:20.682Z,25.00
2023-01-29T10:10:19.841Z,25.00
2023-01-29T10:11:19.682Z,25.00
2023-01-29T10:12:19.815Z,0.00
2023-01-29T10:14:19.686Z,0.00
2023-01-29T10:15:20.805Z,0.00
2023-01-29T10:17:19.787Z,26.43
2023-01-29T10:18:19.768Z,48.02
2023-01-29T10:19:19.623Z,87.06
2023-01-29T10:21:19.686Z,131.14
2023-01-29T10:22:19.772Z,215.67
2023-01-29T10:23:19.753Z,250.64
2023-01-29T10:26:19.780Z,239.07
2023-01-29T10:27:19.628Z,246.58
2023-01-29T10:28:19.624Z,231.60
2023-01-29T10:29:20.297Z,196.02
2023-01-29T10:30:19.925Z,219.70
2023-01-29T10:35:09.377Z,25.00
2023-01-29T10:42:22.568Z,25.00
2023-01-29T10:44:53.655Z,25.00
2023-01-29T10:48:31.691Z,25.00
2023-01-29T10:49:31.831Z,25.00
2023-01-29T10:50:31.897Z,25.00
2023-01-29T10:51:31.628Z,25.00
2023-01-29T10:52:31.617Z,25.00
2023-01-29T10:53:31.576Z,28.68
2023-01-29T10:54:31.524Z,27.31
2023-01-29T10:55:31.541Z,23.16
2023-01-29T10:56:31.598Z,38.13
2023-01-29T10:58:31.511Z,92.52
2023-01-29T11:00:31.525Z,84.98
2023-01-29T11:01:31.484Z,125.49
2023-01-29T11:02:31.484Z,162.90
2023-01-29T11:03:31.566Z,189.43
2023-01-29T11:04:31.474Z,226.79
2023-01-29T11:05:31.539Z,236.01
2023-01-29T11:06:31.506Z,250.00
2023-01-29T11:07:31.552Z,259.79
2023-01-29T11:08:31.646Z,246.30
2023-01-29T11:10:31.562Z,181.46
2023-01-29T11:11:31.591Z,142.73
2023-01-29T11:12:31.675Z,164.14
2023-01-29T11:13:31.653Z,197.48
2023-01-29T13:11:55.521Z,25.00
2023-01-29T13:12:55.452Z,25.00
2023-01-29T13:13:55.618Z,25.00
2023-01-29T13:14:55.423Z,0.00
2023-01-29T13:15:55.538Z,0.00
2023-01-29T13:16:55.449Z,0.00
2023-01-29T13:17:55.429Z,0.00
2023-01-29T13:18:55.474Z,0.00
2023-01-29T13:19:55.393Z,0.00
2023-01-29T13:20:55.496Z,13.66
2023-01-29T13:21:55.387Z,25.00
2023-01-29T13:22:55.388Z,27.33
2023-01-29T13:23:55.469Z,7.82
2023-01-29T13:25:04.524Z,19.25
2023-01-29T13:26:55.338Z,19.43
2023-01-29T13:27:55.396Z,4.35
2023-01-29T13:28:55.405Z,14.76
2023-01-29T13:29:55.474Z,0.67
2023-01-29T13:32:15.212Z,25.00
2023-01-29T13:33:15.844Z,25.00
2023-01-29T13:34:15.174Z,25.00
2023-01-29T13:35:15.947Z,25.00
2023-01-29T13:36:16.238Z,25.00
2023-01-29T13:37:15.191Z,34.49
2023-01-29T13:38:15.187Z,19.59
2023-01-29T13:39:15.352Z,23.66
2023-01-29T13:40:15.544Z,13.26
2023-01-29T13:41:15.280Z,31.00
2023-01-29T13:42:15.273Z,53.44
2023-01-29T13:43:15.290Z,60.90
2023-01-29T13:44:15.303Z,22.74
2023-01-29T13:45:15.767Z,36.82
2023-01-29T13:46:15.358Z,32.20
2023-01-29T13:47:15.409Z,21.60
2023-01-29T13:48:15.533Z,56.57
2023-01-29T13:49:15.544Z,42.98
2023-01-29T13:50:15.672Z,37.04
2023-01-29T13:51:15.684Z,27.76
2023-01-29T13:52:15.689Z,28.72
2023-01-29T13:53:15.693Z,9.20
2023-01-29T13:54:15.800Z,26.96
2023-01-29T14:36:56.157Z,25.00
2023-01-29T14:37:56.063Z,25.00
2023-01-29T14:38:56.195Z,25.00
2023-01-29T14:39:56.041Z,25.00
2023-01-29T14:40:55.968Z,25.00
2023-01-29T14:41:55.924Z,36.94
2023-01-29T14:42:56.067Z,54.56
2023-01-29T14:43:55.953Z,25.00
2023-01-29T14:44:55.900Z,43.22
2023-01-29T14:45:55.905Z,60.44
2023-01-29T14:46:55.880Z,66.23
2023-01-29T14:47:55.865Z,47.60
2023-01-29T14:48:55.904Z,53.23
2023-01-29T14:49:55.888Z,72.26
2023-01-29T14:50:55.843Z,71.28
2023-01-29T14:52:12.101Z,84.80
2023-01-29T14:52:56.337Z,82.63
2023-01-29T14:53:58.899Z,45.05
2023-01-29T14:56:16.823Z,25.00
2023-01-29T14:57:16.343Z,25.00
2023-01-29T14:58:15.852Z,25.00
2023-01-29T14:59:15.936Z,25.00
2023-01-29T15:00:16.040Z,25.00
2023-01-29T15:01:15.995Z,26.55
2023-01-29T15:02:16.129Z,25.43
2023-01-29T15:03:16.734Z,54.21
2023-01-29T15:04:15.832Z,24.88
2023-01-29T15:05:16.239Z,7.02
2023-01-29T15:06:15.834Z,36.81
2023-01-29T15:07:15.837Z,35.60
2023-01-29T15:08:15.776Z,55.28
2023-01-29T15:09:15.799Z,36.08
2023-01-29T15:10:23.481Z,53.26
2023-01-29T15:11:16.769Z,18.91
2023-01-29T15:12:15.773Z,16.75
2023-01-29T15:13:15.778Z,20.37
2023-01-29T15:14:15.837Z,25.94
2023-01-29T15:15:15.916Z,44.59
2023-01-29T15:20:03.010Z,25.00
2023-01-29T15:21:02.301Z,25.00
2023-01-29T15:22:01.197Z,25.00
2023-01-29T15:24:00.766Z,25.00
2023-01-29T15:25:01.571Z,25.00
2023-01-29T15:27:20.422Z,25.00
2023-01-29T15:28:20.314Z,25.00
2023-01-29T15:29:20.399Z,25.00
2023-01-29T15:30:20.647Z,25.00
2023-01-29T15:31:20.628Z,25.00
2023-01-29T15:32:21.019Z,40.70
2023-01-29T15:33:20.542Z,25.00
2023-01-29T15:34:20.615Z,28.37
2023-01-29T15:35:20.867Z,50.98
2023-01-29T15:36:20.665Z,61.36
2023-01-29T15:37:20.704Z,52.02
2023-01-29T15:38:20.743Z,13.18
2023-01-29T15:39:20.750Z,26.31
2023-01-29T15:40:20.832Z,35.15
2023-01-29T15:41:20.811Z,34.67
2023-01-29T15:42:20.825Z,26.57
2023-01-29T15:43:20.891Z,36.49
2023-01-29T15:44:21.032Z,61.79
2023-01-29T15:46:21.098Z,70.85
2023-01-29T15:47:21.142Z,61.35
2023-01-29T15:48:21.213Z,27.74
2023-01-29T15:49:21.250Z,26.87
2023-01-29T15:50:21.332Z,30.19
2023-01-29T15:51:21.341Z,50.31
2023-01-29T15:52:21.410Z,68.61
2023-01-29T15:53:21.552Z,63.57
2023-01-29T15:54:21.502Z,65.16
2023-01-29T15:55:21.538Z,38.77
2023-01-29T15:56:21.578Z,37.51
2023-01-29T15:57:21.616Z,60.34
2023-01-29T15:58:21.554Z,37.29
2023-01-29T15:59:21.589Z,33.89
2023-01-29T16:00:21.596Z,34.37
2023-01-29T16:02:21.633Z,75.17
2023-01-29T16:03:21.591Z,115.91
2023-01-29T16:04:21.669Z,117.20
2023-01-29T16:08:21.767Z,158.98
2023-01-29T16:09:22.299Z,159.51
2023-01-29T16:10:21.657Z,145.16
2023-01-29T16:12:21.657Z,148.79
2023-01-29T16:13:21.639Z,150.82
2023-01-29T16:14:21.741Z,152.56
2023-01-29T16:17:21.574Z,131.34
2023-01-29T16:18:21.607Z,125.05
2023-01-29T16:19:21.613Z,124.77
2023-01-29T16:20:21.584Z,113.15
2023-01-29T16:21:21.607Z,108.88
2023-01-29T16:22:21.582Z,113.06
2023-01-29T16:23:21.598Z,113.27
2023-01-29T16:24:21.589Z,116.98
2023-01-29T16:25:21.564Z,140.96
2023-01-29T16:26:21.554Z,162.07
2023-01-29T16:27:21.596Z,122.83
2023-01-29T16:28:21.617Z,129.72
2023-01-29T16:29:21.510Z,130.22
2023-01-29T16:30:21.562Z,120.98
2023-01-29T16:31:21.758Z,102.90
2023-01-29T16:32:21.743Z,98.63
2023-01-29T16:33:21.725Z,102.31
2023-01-29T16:34:21.841Z,102.47
2023-01-29T16:35:21.860Z,91.57
2023-01-29T16:36:21.877Z,74.25
2023-01-29T16:37:21.858Z,79.69
2023-01-29T16:38:21.866Z,87.69
2023-01-29T16:39:21.896Z,93.83
2023-01-29T16:40:21.888Z,100.57
2023-01-29T16:41:21.878Z,116.90
2023-01-29T16:42:21.871Z,116.29
2023-01-29T16:43:22.812Z,114.10
2023-01-29T16:44:21.873Z,125.85
2023-01-29T16:45:21.872Z,126.93
2023-01-29T16:46:21.895Z,123.85
2023-01-29T16:47:21.940Z,131.14
2023-01-29T16:48:22.010Z,133.68
2023-01-29T16:49:21.895Z,133.60
2023-01-29T16:50:21.907Z,135.57
2023-01-29T16:51:21.917Z,140.32
2023-01-29T16:52:21.917Z,140.22
2023-01-29T16:53:21.937Z,146.97
2023-01-29T16:54:21.867Z,154.01
2023-01-29T16:55:21.976Z,148.95
2023-01-29T16:56:21.989Z,150.78
2023-01-29T16:57:21.963Z,144.40
2023-01-29T16:58:22.004Z,146.26
2023-01-29T16:59:22.011Z,140.72
2023-01-29T17:00:22.080Z,140.64
2023-01-29T17:01:22.033Z,145.87
2023-01-29T17:02:22.053Z,143.63
2023-01-29T17:03:22.121Z,144.24
2023-01-29T17:04:22.133Z,148.68
2023-01-29T17:05:22.115Z,153.58
2023-01-29T17:06:22.318Z,156.92
2023-01-29T17:07:22.245Z,144.89
2023-01-29T17:08:22.242Z,147.86
2023-01-29T17:09:22.279Z,160.95
2023-01-29T17:10:22.298Z,187.07
2023-01-29T17:11:22.359Z,210.54
2023-01-29T17:12:22.503Z,189.72
2023-01-29T17:13:22.475Z,188.37
2023-01-29T17:14:22.586Z,182.13
2023-01-29T17:15:22.520Z,181.74
2023-01-29T17:16:22.656Z,175.85
2023-01-29T17:17:22.635Z,180.24
2023-01-29T17:18:22.686Z,196.51
2023-01-29T17:19:22.734Z,192.22
2023-01-29T17:20:22.770Z,180.84
2023-01-29T17:21:22.878Z,151.25
2023-01-29T17:22:22.866Z,124.51
2023-01-29T17:23:22.882Z,127.59
2023-01-29T17:24:22.901Z,140.05
2023-01-29T17:25:22.849Z,132.15
2023-01-29T17:26:22.984Z,120.26
2023-01-29T17:27:22.881Z,108.09
2023-01-29T17:28:22.913Z,91.93
2023-01-29T17:29:22.926Z,88.32
2023-01-29T17:30:22.963Z,76.52
2023-01-29T17:31:23.083Z,70.32
2023-01-29T17:32:22.997Z,56.25
2023-01-29T17:33:22.952Z,63.17
2023-01-29T17:34:22.956Z,68.45
2023-01-29T17:35:22.970Z,79.53
2023-01-29T17:36:22.918Z,87.92
2023-01-29T17:37:22.919Z,77.04
2023-01-29T17:38:26.334Z,83.82
2023-01-29T17:39:22.936Z,94.93
2023-01-29T17:40:22.989Z,94.92
2023-01-29T17:41:22.903Z,104.49
2023-01-29T17:42:22.915Z,177.79
2023-01-29T17:43:22.921Z,223.43
2023-01-29T17:44:22.921Z,237.90
2023-01-29T17:45:22.931Z,254.16
2023-01-29T17:46:22.962Z,237.46
2023-01-29T17:47:22.903Z,237.06
2023-01-29T17:48:22.954Z,204.94
2023-01-29T17:49:22.850Z,209.61
2023-01-29T17:50:22.860Z,224.76
2023-01-29T17:51:24.880Z,229.23
2023-01-29T17:52:22.875Z,228.98
2023-01-29T17:53:24.828Z,227.38
2023-01-29T17:54:22.844Z,228.89
2023-01-29T17:55:22.867Z,230.67
2023-01-29T17:56:22.886Z,232.53
2023-01-29T17:57:22.803Z,226.89
2023-01-29T17:58:22.933Z,220.88
2023-01-29T17:59:22.845Z,210.89
2023-01-29T18:00:22.859Z,185.65
2023-01-29T18:01:22.834Z,221.67
2023-01-29T18:02:28.684Z,230.89
2023-01-29T18:03:23.778Z,224.45
2023-01-29T18:04:22.885Z,209.89
2023-01-29T18:06:43.159Z,25.00
2023-01-29T18:07:43.248Z,25.00
2023-01-29T18:08:43.171Z,25.00
2023-01-29T18:09:43.609Z,25.00
2023-01-29T18:10:43.011Z,25.00
2023-01-29T18:11:43.023Z,22.84
2023-01-29T18:12:43.072Z,19.76
2023-01-29T18:13:43.152Z,29.93
2023-01-29T18:14:43.027Z,44.63
2023-01-29T18:15:43.062Z,46.35
2023-01-29T18:16:43.057Z,43.86
2023-01-29T18:17:42.951Z,46.58
2023-01-29T18:18:42.961Z,36.94
2023-01-29T18:19:42.993Z,36.74
2023-01-29T18:20:42.886Z,44.51
2023-01-29T18:21:42.896Z,33.64
2023-01-29T18:22:43.039Z,34.72
2023-01-29T18:23:43.004Z,29.10
2023-01-29T18:24:43.140Z,29.67
2023-01-29T18:25:43.590Z,25.00
2023-01-29T18:26:42.933Z,27.69
2023-01-29T18:27:42.933Z,28.24
2023-01-29T18:28:42.863Z,35.17
2023-01-29T18:29:42.855Z,34.33
2023-01-29T18:30:42.905Z,31.85
2023-01-29T18:31:42.993Z,38.18
2023-01-29T18:32:42.830Z,33.32
2023-01-29T18:33:42.834Z,39.08
2023-01-29T18:34:42.836Z,54.71
2023-01-29T18:35:42.842Z,39.07
2023-01-29T18:36:42.789Z,58.10
2023-01-29T18:37:42.864Z,60.34
2023-01-29T18:38:43.030Z,33.18
2023-01-29T18:39:42.962Z,25.14
2023-01-29T18:40:43.116Z,181.27
2023-01-29T18:41:43.095Z,237.50
2023-01-29T18:42:43.092Z,221.30
2023-01-29T18:43:43.149Z,207.41
2023-01-29T18:44:43.125Z,195.77
2023-01-29T18:45:43.242Z,176.83
2023-01-29T18:46:43.360Z,180.17
2023-01-29T18:47:43.328Z,114.88
2023-01-29T18:48:43.416Z,87.37
2023-01-29T18:49:43.442Z,84.86
2023-01-29T18:50:43.542Z,74.48
2023-01-29T18:51:43.569Z,85.58
2023-01-29T18:52:43.577Z,90.25
2023-01-29T18:53:45.352Z,84.57
2023-01-29T18:54:43.612Z,85.84
2023-01-29T18:55:43.668Z,49.08
2023-01-29T18:57:13.570Z,25.00
2023-01-29T18:58:27.466Z,23.21
2023-01-29T19:00:04.612Z,25.00
2023-01-29T19:01:03.703Z,25.00
2023-01-29T19:02:03.725Z,25.00
2023-01-29T19:03:03.883Z,25.00
2023-01-29T19:04:04.128Z,25.00
2023-01-29T19:05:03.772Z,26.39
2023-01-29T19:06:03.956Z,27.25
2023-01-29T19:07:03.659Z,25.14
2023-01-29T19:08:03.692Z,26.52
2023-01-29T19:09:03.688Z,25.00
2023-01-29T19:10:03.645Z,25.00
2023-01-29T19:11:03.709Z,41.01
2023-01-29T19:12:03.575Z,53.91
2023-01-29T19:13:05.751Z,71.52
2023-01-29T19:14:03.585Z,92.55
2023-01-29T19:15:03.574Z,165.87
2023-01-29T19:16:03.650Z,168.84
2023-01-29T19:17:03.669Z,150.13
2023-01-29T19:18:03.511Z,107.58
2023-01-29T19:19:03.578Z,85.45
2023-01-29T19:20:04.579Z,77.93
2023-01-29T19:21:03.569Z,59.49
2023-01-29T19:22:03.649Z,49.15
2023-01-29T19:23:03.565Z,51.30
2023-01-29T19:24:03.493Z,50.32
2023-01-29T19:25:04.536Z,54.48
2023-01-29T19:26:03.511Z,64.21
2023-01-29T19:28:23.963Z,25.00
2023-01-29T19:29:24.287Z,25.00
2023-01-29T19:30:24.566Z,25.00
2023-01-29T19:31:23.914Z,25.00
2023-01-29T19:32:23.987Z,25.00
2023-01-29T19:33:23.768Z,25.00
2023-01-29T19:35:44.565Z,25.00
2023-01-29T19:36:44.336Z,25.00
2023-01-29T19:37:44.413Z,25.00
2023-01-29T19:44:21.786Z,25.00
2023-01-29T19:45:37.179Z,25.00
2023-01-29T19:46:22.210Z,25.00
2023-01-29T19:47:22.471Z,25.00
2023-01-29T19:48:20.994Z,25.00
2023-01-29T19:49:20.968Z,25.00
2023-01-29T19:50:21.078Z,25.00
2023-01-29T19:51:20.968Z,27.87
2023-01-29T19:52:20.962Z,26.43
2023-01-29T19:53:20.955Z,27.52
2023-01-29T19:54:21.089Z,26.80
2023-01-29T19:55:21.270Z,25.00
2023-01-29T19:56:24.019Z,28.38
2023-01-29T20:24:21.428Z,25.00
2023-01-29T20:57:20.445Z,25.81
2023-01-29T21:39:21.848Z,182.32
2023-01-29T22:00:00.550Z,25.00
